createdAt,value
2023-02-09T00:01:25.075Z,70.24
2023-02-09T00:03:52.683Z,70.99
2023-02-09T00:06:22.306Z,70.36
2023-02-09T00:08:49.536Z,70.53
2023-02-09T00:11:20.897Z,70.40
2023-02-09T00:13:48.153Z,70.84
2023-02-09T00:16:16.340Z,70.49
2023-02-09T00:18:43.549Z,70.68
2023-02-09T00:21:11.769Z,70.61
2023-02-09T00:23:40.749Z,70.29
2023-02-09T00:26:11.869Z,70.48
2023-02-09T00:28:39.025Z,70.17
2023-02-09T00:31:11.204Z,70.31
2023-02-09T00:33:38.493Z,70.47
2023-02-09T00:36:12.303Z,70.77
2023-02-09T00:38:40.473Z,70.96
2023-02-09T00:41:07.766Z,71.24
2023-02-09T00:43:38.955Z,70.59
2023-02-09T00:46:06.688Z,70.91
2023-02-09T00:48:34.366Z,70.67
2023-02-09T00:51:01.997Z,70.69
2023-02-09T00:53:29.167Z,70.62
2023-02-09T00:55:56.314Z,70.63
2023-02-09T00:58:23.446Z,70.55
2023-02-09T01:01:03.434Z,70.46
2023-02-09T01:03:30.582Z,70.71
2023-02-09T01:05:59.301Z,70.84
2023-02-09T01:08:26.457Z,70.76
2023-02-09T01:10:53.689Z,70.76
2023-02-09T01:13:20.883Z,70.90
2023-02-09T01:15:48.115Z,70.85
2023-02-09T01:18:15.297Z,71.06
2023-02-09T01:20:43.072Z,71.05
2023-02-09T01:23:11.325Z,71.21
2023-02-09T01:25:38.455Z,71.47
2023-02-09T01:28:05.661Z,71.22
2023-02-09T01:30:34.188Z,71.72
2023-02-09T01:33:01.377Z,71.55
2023-02-09T01:35:29.860Z,71.06
2023-02-09T01:37:58.801Z,71.47
2023-02-09T01:40:25.970Z,71.34
2023-02-09T01:42:53.110Z,71.48
2023-02-09T01:45:34.277Z,71.28
2023-02-09T01:48:03.594Z,71.58
2023-02-09T01:50:34.657Z,71.49
2023-02-09T01:53:02.613Z,71.22
2023-02-09T01:55:32.493Z,71.47
2023-02-09T01:58:04.332Z,71.76
2023-02-09T02:00:31.538Z,71.54
2023-02-09T02:03:02.190Z,71.66
2023-02-09T02:05:29.964Z,71.72
2023-02-09T02:08:08.061Z,71.35
2023-02-09T02:10:35.244Z,71.58
2023-02-09T02:13:03.131Z,71.55
2023-02-09T02:15:38.650Z,71.60
2023-02-09T02:18:30.784Z,71.51
2023-02-09T02:21:24.310Z,71.92
2023-02-09T02:23:57.602Z,71.48
2023-02-09T02:26:56.089Z,71.37
2023-02-09T02:29:43.548Z,71.78
2023-02-09T02:32:17.236Z,71.83
2023-02-09T02:34:49.897Z,72.26
2023-02-09T02:37:49.294Z,71.92
2023-02-09T02:40:50.119Z,72.43
2023-02-09T02:43:23.062Z,72.23
2023-02-09T02:45:59.157Z,72.20
2023-02-09T02:48:46.350Z,72.34
2023-02-09T02:51:36.309Z,71.93
2023-02-09T02:54:07.686Z,72.14
2023-02-09T02:56:38.201Z,72.71
2023-02-09T02:59:10.174Z,72.55
2023-02-09T03:01:49.600Z,72.74
2023-02-09T03:04:18.134Z,72.42
2023-02-09T03:06:45.388Z,72.69
2023-02-09T03:09:12.566Z,72.48
2023-02-09T03:11:42.847Z,72.37
2023-02-09T03:14:37.519Z,72.32
2023-02-09T03:17:25.115Z,72.63
2023-02-09T03:19:59.451Z,72.60
2023-02-09T03:22:37.151Z,72.72
2023-02-09T03:25:22.465Z,72.79
2023-02-09T03:28:01.494Z,72.94
2023-02-09T03:30:29.035Z,72.70
2023-02-09T03:32:56.412Z,72.74
2023-02-09T03:35:33.606Z,72.37
2023-02-09T03:38:01.382Z,72.21
2023-02-09T03:40:28.684Z,72.20
2023-02-09T03:42:55.946Z,71.88
2023-02-09T03:45:23.216Z,72.30
2023-02-09T03:47:50.414Z,72.60
2023-02-09T03:50:17.891Z,72.62
2023-02-09T03:52:45.087Z,72.47
2023-02-09T03:55:12.270Z,72.56
2023-02-09T03:57:39.601Z,72.39
2023-02-09T04:00:07.604Z,72.26
2023-02-09T04:02:34.843Z,72.27
2023-02-09T04:05:02.953Z,72.45
2023-02-09T04:07:31.390Z,72.47
2023-02-09T04:09:58.598Z,72.23
2023-02-09T04:12:25.864Z,72.20
2023-02-09T04:14:53.867Z,71.95
2023-02-09T04:17:21.340Z,72.07
2023-02-09T04:20:13.841Z,71.87
2023-02-09T04:22:41.073Z,71.98
2023-02-09T04:25:08.267Z,71.98
2023-02-09T04:27:35.396Z,72.22
2023-02-09T04:30:02.584Z,72.11
2023-02-09T04:32:29.830Z,72.13
2023-02-09T04:34:57.171Z,72.11
2023-02-09T04:37:24.482Z,71.95
2023-02-09T04:39:51.693Z,71.97
2023-02-09T04:42:18.973Z,72.22
2023-02-09T04:44:46.342Z,72.05
2023-02-09T04:47:13.525Z,72.02
2023-02-09T04:49:42.541Z,71.97
2023-02-09T04:52:09.873Z,71.93
2023-02-09T04:54:37.021Z,72.15
2023-02-09T04:57:22.709Z,71.87
2023-02-09T04:59:49.993Z,72.50
2023-02-09T05:02:17.284Z,72.33
2023-02-09T05:04:44.536Z,72.49
2023-02-09T05:07:12.000Z,72.29
2023-02-09T05:09:39.193Z,72.43
2023-02-09T05:12:09.955Z,72.40
2023-02-09T05:14:37.212Z,72.65
2023-02-09T05:17:04.431Z,72.04
2023-02-09T05:19:31.640Z,72.44
2023-02-09T05:21:58.884Z,72.53
2023-02-09T05:24:26.019Z,72.31
2023-02-09T05:26:53.206Z,72.46
2023-02-09T05:29:22.187Z,71.82
2023-02-09T05:31:49.602Z,72.31
2023-02-09T05:34:16.838Z,72.36
2023-02-09T05:36:44.002Z,72.40
2023-02-09T05:39:11.178Z,72.04
2023-02-09T05:41:57.243Z,72.11
2023-02-09T05:44:24.826Z,72.78
2023-02-09T05:46:52.030Z,72.58
2023-02-09T05:49:19.276Z,72.62
2023-02-09T05:51:46.490Z,72.32
2023-02-09T05:54:13.710Z,72.63
2023-02-09T05:56:40.877Z,72.56
2023-02-09T05:59:08.097Z,72.43
2023-02-09T06:01:35.489Z,72.50
2023-02-09T06:04:02.782Z,72.99
2023-02-09T06:06:29.999Z,72.39
2023-02-09T06:08:57.138Z,71.80
2023-02-09T06:11:49.736Z,72.38
2023-02-09T06:14:17.689Z,72.22
2023-02-09T06:16:46.084Z,73.03
2023-02-09T06:19:18.704Z,72.83
2023-02-09T06:22:11.110Z,72.77
2023-02-09T06:24:38.299Z,73.12
2023-02-09T06:27:05.412Z,72.37
2023-02-09T06:29:32.626Z,72.80
2023-02-09T06:31:59.815Z,73.36
2023-02-09T06:34:27.227Z,72.91
2023-02-09T06:36:54.445Z,72.67
2023-02-09T06:39:21.666Z,73.03
2023-02-09T06:41:48.828Z,73.05
2023-02-09T06:44:16.014Z,72.68
2023-02-09T06:46:43.406Z,73.16
2023-02-09T06:49:10.588Z,71.96
2023-02-09T06:51:38.064Z,72.20
2023-02-09T06:54:05.423Z,73.28
2023-02-09T06:56:32.567Z,73.06
2023-02-09T06:58:59.700Z,72.41
2023-02-09T07:01:27.989Z,72.69
2023-02-09T07:03:55.277Z,72.76
2023-02-09T07:06:22.867Z,73.30
2023-02-09T07:08:50.808Z,73.05
2023-02-09T07:11:18.903Z,71.86
2023-02-09T07:13:46.769Z,72.92
2023-02-09T07:16:14.435Z,73.02
2023-02-09T07:18:42.315Z,72.60
2023-02-09T07:21:19.878Z,72.29
2023-02-09T07:23:47.884Z,71.84
2023-02-09T07:26:16.610Z,71.58
2023-02-09T07:28:44.045Z,72.18
2023-02-09T07:31:13.193Z,72.68
2023-02-09T07:33:40.514Z,72.82
2023-02-09T07:36:10.006Z,72.80
2023-02-09T07:38:38.103Z,72.62
2023-02-09T07:41:06.880Z,72.03
2023-02-09T07:43:34.695Z,72.62
2023-02-09T07:46:06.259Z,72.16
2023-02-09T07:48:34.347Z,71.85
2023-02-09T07:51:01.808Z,72.02
2023-02-09T07:53:29.453Z,71.65
2023-02-09T07:55:56.863Z,71.96
2023-02-09T07:58:24.324Z,70.68
2023-02-09T08:00:51.763Z,71.42
2023-02-09T08:03:21.074Z,71.50
2023-02-09T08:06:01.141Z,71.42
2023-02-09T08:08:28.530Z,71.70
2023-02-09T08:10:56.929Z,70.90
2023-02-09T08:13:26.429Z,70.01
2023-02-09T08:15:56.749Z,69.73
2023-02-09T08:18:26.882Z,69.50
2023-02-09T08:20:54.172Z,68.20
2023-02-09T08:23:30.514Z,68.81
2023-02-09T08:25:59.646Z,70.12
2023-02-09T08:28:41.734Z,68.94
2023-02-09T08:31:15.487Z,70.21
2023-02-09T08:33:45.167Z,68.91
2023-02-09T08:36:13.094Z,68.01
2023-02-09T08:38:40.343Z,68.14
2023-02-09T08:41:09.378Z,68.47
2023-02-09T08:43:36.794Z,67.23
2023-02-09T08:46:13.509Z,67.49
2023-02-09T08:48:43.160Z,67.71
2023-02-09T08:51:11.695Z,67.98
2023-02-09T08:53:39.493Z,67.99
2023-02-09T08:56:07.063Z,66.41
2023-02-09T08:58:34.963Z,66.82
2023-02-09T09:01:02.297Z,67.18
2023-02-09T09:03:31.580Z,66.79
2023-02-09T09:06:00.550Z,65.18
2023-02-09T09:08:28.332Z,65.80
2023-02-09T09:10:55.659Z,65.35
2023-02-09T09:13:24.312Z,66.21
2023-02-09T09:15:52.648Z,66.15
2023-02-09T09:18:19.839Z,65.57
2023-02-09T09:20:47.454Z,65.23
2023-02-09T09:23:15.160Z,66.11
2023-02-09T09:25:42.838Z,64.53
2023-02-09T09:28:10.244Z,64.88
2023-02-09T09:30:37.466Z,65.69
2023-02-09T09:33:05.279Z,65.69
2023-02-09T09:35:32.489Z,64.55
2023-02-09T09:38:00.757Z,64.63
2023-02-09T09:40:33.850Z,63.54
2023-02-09T09:43:03.816Z,64.47
2023-02-09T09:45:33.399Z,63.46
2023-02-09T09:48:00.801Z,63.56
2023-02-09T09:50:32.948Z,63.01
2023-02-09T09:53:14.829Z,63.99
2023-02-09T09:55:42.311Z,64.33
2023-02-09T09:58:16.216Z,64.07
2023-02-09T10:00:43.610Z,63.78
2023-02-09T10:03:18.310Z,64.51
2023-02-09T10:05:48.770Z,64.83
2023-02-09T10:08:24.165Z,60.73
2023-02-09T10:10:58.378Z,59.57
2023-02-09T10:13:32.388Z,60.99
2023-02-09T10:15:59.693Z,60.41
2023-02-09T10:18:29.191Z,59.02
2023-02-09T10:21:07.625Z,59.32
2023-02-09T10:23:45.583Z,59.76
2023-02-09T10:26:12.701Z,58.23
2023-02-09T10:28:42.535Z,56.58
2023-02-09T10:31:13.799Z,59.05
2023-02-09T10:33:43.339Z,57.72
2023-02-09T10:36:32.080Z,57.79
2023-02-09T10:39:09.805Z,59.14
2023-02-09T10:41:38.162Z,58.26
2023-02-09T10:44:08.836Z,56.96
2023-02-09T10:46:38.036Z,58.27
2023-02-09T10:49:31.016Z,56.03
2023-02-09T10:52:15.907Z,56.79
2023-02-09T10:54:57.415Z,58.08
2023-02-09T10:57:30.606Z,57.14
2023-02-09T11:00:00.700Z,55.42
2023-02-09T11:02:36.395Z,55.95
2023-02-09T11:05:23.454Z,55.07
2023-02-09T11:07:58.400Z,55.55
2023-02-09T11:10:27.825Z,55.89
2023-02-09T11:12:55.458Z,55.12
2023-02-09T11:15:26.581Z,53.06
2023-02-09T11:18:05.869Z,53.47
2023-02-09T11:20:36.107Z,51.72
2023-02-09T11:23:33.485Z,53.22
2023-02-09T11:26:24.051Z,50.39
2023-02-09T11:28:53.925Z,51.24
2023-02-09T11:31:35.760Z,51.87
2023-02-09T11:34:33.924Z,52.14
2023-02-09T11:37:19.642Z,50.00
2023-02-09T11:40:05.881Z,49.39
2023-02-09T11:42:46.438Z,49.58
2023-02-09T11:45:19.599Z,50.01
2023-02-09T11:47:46.773Z,49.45
2023-02-09T11:50:39.933Z,49.27
2023-02-09T11:53:42.124Z,47.67
2023-02-09T11:56:12.436Z,47.10
2023-02-09T11:58:53.694Z,46.84
2023-02-09T12:01:26.681Z,48.67
2023-02-09T12:03:59.486Z,48.72
2023-02-09T12:06:30.142Z,46.23
2023-02-09T12:09:03.693Z,45.61
2023-02-09T12:11:37.847Z,46.75
2023-02-09T12:14:34.602Z,46.01
2023-02-09T12:17:15.414Z,45.85
2023-02-09T12:19:45.459Z,44.61
2023-02-09T12:22:34.606Z,42.80
2023-02-09T12:25:38.608Z,40.17
2023-02-09T12:28:08.655Z,43.08
2023-02-09T12:30:45.169Z,42.83
2023-02-09T12:33:30.866Z,39.78
2023-02-09T12:36:02.970Z,41.29
2023-02-09T12:39:04.787Z,40.23
2023-02-09T12:41:35.025Z,42.49
2023-02-09T12:44:08.790Z,40.23
2023-02-09T12:46:44.784Z,39.78
2023-02-09T12:49:11.920Z,36.81
2023-02-09T12:51:52.703Z,36.36
2023-02-09T12:54:47.245Z,38.04
2023-02-09T12:57:17.368Z,39.22
2023-02-09T12:59:50.721Z,41.14
2023-02-09T13:02:49.866Z,37.75
2023-02-09T13:05:25.551Z,37.12
2023-02-09T13:08:01.917Z,36.24
2023-02-09T13:10:41.282Z,37.11
2023-02-09T13:13:11.291Z,41.31
2023-02-09T13:15:52.014Z,38.85
2023-02-09T13:18:56.781Z,39.69
2023-02-09T13:21:35.938Z,36.31
2023-02-09T13:24:18.369Z,35.61
2023-02-09T13:26:57.120Z,37.43
2023-02-09T13:29:31.757Z,39.23
2023-02-09T13:32:16.806Z,38.10
2023-02-09T13:34:46.381Z,37.65
2023-02-09T13:37:40.642Z,35.39
2023-02-09T13:40:27.679Z,38.36
2023-02-09T13:42:58.758Z,38.65
2023-02-09T13:45:27.189Z,38.96
2023-02-09T13:47:56.069Z,36.47
2023-02-09T13:50:25.271Z,39.35
2023-02-09T13:52:52.485Z,41.28
2023-02-09T13:55:24.866Z,40.80
2023-02-09T13:57:54.430Z,37.85
2023-02-09T14:00:30.336Z,40.94
2023-02-09T14:02:59.869Z,42.06
2023-02-09T14:05:31.377Z,42.44
2023-02-09T14:07:59.186Z,42.44
2023-02-09T14:10:28.099Z,39.28
2023-02-09T14:13:00.734Z,42.43
2023-02-09T14:16:00.087Z,43.37
2023-02-09T14:18:30.314Z,44.16
2023-02-09T14:21:14.385Z,42.32
2023-02-09T14:23:49.563Z,42.23
2023-02-09T14:26:25.122Z,43.88
2023-02-09T14:29:03.784Z,45.28
2023-02-09T14:31:34.256Z,44.04
2023-02-09T14:34:01.450Z,43.35
2023-02-09T14:36:32.414Z,44.74
2023-02-09T14:39:16.705Z,43.44
2023-02-09T14:42:01.843Z,43.54
2023-02-09T14:44:29.922Z,46.46
2023-02-09T14:46:59.174Z,44.16
2023-02-09T14:49:27.397Z,46.45
2023-02-09T14:52:15.050Z,44.77
2023-02-09T14:54:46.987Z,46.83
2023-02-09T14:57:14.182Z,45.90
2023-02-09T14:59:41.429Z,46.56
2023-02-09T15:02:23.929Z,47.21
2023-02-09T15:04:51.307Z,47.67
2023-02-09T15:07:21.252Z,48.55
2023-02-09T15:09:49.068Z,45.23
2023-02-09T15:12:42.678Z,46.46
2023-02-09T15:15:14.411Z,45.34
2023-02-09T15:17:41.688Z,44.90
2023-02-09T15:20:12.843Z,47.41
2023-02-09T15:22:40.041Z,46.74
2023-02-09T15:25:07.241Z,46.28
2023-02-09T15:27:43.637Z,48.53
2023-02-09T15:30:24.402Z,47.61
2023-02-09T15:32:52.094Z,48.74
2023-02-09T15:35:25.189Z,50.00
2023-02-09T15:37:57.982Z,47.55
2023-02-09T15:40:51.234Z,47.10
2023-02-09T15:43:38.637Z,49.36
2023-02-09T15:46:25.024Z,47.43
2023-02-09T15:48:52.200Z,50.18
2023-02-09T15:51:19.747Z,50.16
2023-02-09T15:53:47.213Z,50.73
2023-02-09T15:56:15.418Z,52.05
2023-02-09T15:58:44.861Z,50.53
2023-02-09T16:01:13.689Z,51.63
2023-02-09T16:03:41.202Z,50.68
2023-02-09T16:06:26.532Z,51.17
2023-02-09T16:08:53.958Z,51.75
2023-02-09T16:11:32.749Z,52.83
2023-02-09T16:14:00.012Z,53.71
2023-02-09T16:16:28.278Z,53.20
2023-02-09T16:18:55.496Z,52.87
2023-02-09T16:21:24.144Z,53.52
2023-02-09T16:23:52.890Z,54.30
2023-02-09T16:26:21.036Z,53.77
2023-02-09T16:28:48.348Z,52.87
2023-02-09T16:31:15.693Z,53.18
2023-02-09T16:33:43.438Z,53.21
2023-02-09T16:36:15.607Z,52.47
2023-02-09T16:38:43.182Z,54.17
2023-02-09T16:41:33.924Z,53.83
2023-02-09T16:44:02.198Z,55.06
2023-02-09T16:46:30.816Z,53.90
2023-02-09T16:48:58.789Z,54.08
2023-02-09T16:51:25.977Z,54.22
2023-02-09T16:53:53.148Z,54.55
2023-02-09T16:56:20.549Z,54.71
2023-02-09T16:58:48.102Z,54.59
2023-02-09T17:01:18.559Z,55.78
2023-02-09T17:03:48.610Z,55.44
2023-02-09T17:06:21.737Z,56.01
2023-02-09T17:08:49.451Z,55.49
2023-02-09T17:11:19.357Z,55.46
2023-02-09T17:13:46.680Z,55.42
2023-02-09T17:16:25.763Z,56.11
2023-02-09T17:18:59.282Z,56.44
2023-02-09T17:21:28.389Z,55.90
2023-02-09T17:23:57.484Z,56.12
2023-02-09T17:26:24.902Z,55.95
2023-02-09T17:28:52.216Z,56.13
2023-02-09T17:31:23.954Z,55.90
2023-02-09T17:33:53.262Z,55.79
2023-02-09T17:36:26.935Z,56.40
2023-02-09T17:38:56.899Z,56.37
2023-02-09T17:41:34.275Z,56.96
2023-02-09T17:44:24.227Z,57.38
2023-02-09T17:46:56.324Z,56.97
2023-02-09T17:49:23.583Z,56.79
2023-02-09T17:51:51.496Z,56.93
2023-02-09T17:54:20.588Z,56.97
2023-02-09T17:56:47.809Z,56.55
2023-02-09T17:59:19.418Z,56.87
2023-02-09T18:01:49.529Z,56.84
2023-02-09T18:04:21.475Z,56.84
2023-02-09T18:06:49.039Z,56.86
2023-02-09T18:09:16.401Z,56.99
2023-02-09T18:11:46.311Z,57.21
2023-02-09T18:14:15.637Z,57.25
2023-02-09T18:16:43.472Z,57.38
2023-02-09T18:19:11.797Z,57.82
2023-02-09T18:21:44.910Z,58.05
2023-02-09T18:24:12.125Z,57.61
2023-02-09T18:26:39.305Z,57.61
2023-02-09T18:29:06.483Z,58.39
2023-02-09T18:31:34.486Z,57.48
2023-02-09T18:34:02.077Z,58.42
2023-02-09T18:36:29.398Z,57.85
2023-02-09T18:38:56.676Z,57.88
2023-02-09T18:41:24.720Z,58.03
2023-02-09T18:43:54.173Z,58.25
2023-02-09T18:46:24.372Z,58.33
2023-02-09T18:48:51.700Z,58.33
2023-02-09T18:51:18.939Z,58.73
2023-02-09T18:53:46.224Z,58.89
2023-02-09T18:56:20.783Z,58.41
2023-02-09T18:58:50.008Z,58.81
2023-02-09T19:01:19.665Z,59.83
2023-02-09T19:03:50.202Z,59.28
2023-02-09T19:06:17.939Z,59.48
2023-02-09T19:08:45.136Z,59.63
2023-02-09T19:11:14.203Z,59.67
2023-02-09T19:13:41.546Z,59.43
2023-02-09T19:16:12.820Z,59.53
2023-02-09T19:18:40.008Z,59.26
2023-02-09T19:21:09.615Z,59.63
2023-02-09T19:23:37.071Z,60.34
2023-02-09T19:26:05.773Z,59.91
2023-02-09T19:28:35.003Z,60.04
2023-02-09T19:31:02.369Z,60.41
2023-02-09T19:33:29.492Z,60.17
2023-02-09T19:35:57.751Z,60.75
2023-02-09T19:38:26.432Z,60.53
2023-02-09T19:41:08.527Z,60.70
2023-02-09T19:43:37.977Z,60.86
2023-02-09T19:46:05.711Z,60.62
2023-02-09T19:48:33.213Z,60.52
2023-02-09T19:51:00.416Z,60.54
2023-02-09T19:53:27.833Z,61.41
2023-02-09T19:55:55.110Z,61.05
2023-02-09T19:58:22.473Z,61.65
2023-02-09T20:00:51.002Z,61.78
2023-02-09T20:03:18.731Z,62.01
2023-02-09T20:05:46.507Z,61.69
2023-02-09T20:08:18.841Z,61.27
2023-02-09T20:10:46.544Z,61.86
2023-02-09T20:13:14.759Z,61.92
2023-02-09T20:15:43.460Z,62.25
2023-02-09T20:18:12.193Z,62.56
2023-02-09T20:20:41.567Z,62.18
2023-02-09T20:23:09.616Z,62.80
2023-02-09T20:25:40.399Z,62.11
2023-02-09T20:28:07.808Z,62.01
2023-02-09T20:30:35.406Z,62.54
2023-02-09T20:33:02.622Z,62.39
2023-02-09T20:35:29.810Z,62.66
2023-02-09T20:37:57.032Z,63.07
2023-02-09T20:40:24.235Z,63.02
2023-02-09T20:43:10.401Z,62.85
2023-02-09T20:45:56.102Z,63.76
2023-02-09T20:48:23.206Z,63.06
2023-02-09T20:50:50.336Z,62.95
2023-02-09T20:53:17.576Z,62.90
2023-02-09T20:55:44.791Z,63.16
2023-02-09T20:58:13.639Z,63.42
2023-02-09T21:00:42.308Z,63.37
2023-02-09T21:03:09.567Z,63.70
2023-02-09T21:05:36.867Z,63.19
2023-02-09T21:08:04.555Z,63.64
2023-02-09T21:10:37.948Z,63.45
2023-02-09T21:13:06.282Z,63.41
2023-02-09T21:15:33.563Z,63.00
2023-02-09T21:18:00.833Z,63.26
2023-02-09T21:20:28.056Z,63.76
2023-02-09T21:22:55.254Z,63.90
2023-02-09T21:25:22.415Z,63.79
2023-02-09T21:27:49.664Z,64.14
2023-02-09T21:30:16.838Z,63.98
2023-02-09T21:32:44.304Z,63.99
2023-02-09T21:35:11.520Z,64.37
2023-02-09T21:37:39.315Z,63.76
2023-02-09T21:40:07.238Z,64.13
2023-02-09T21:42:36.732Z,64.33
2023-02-09T21:45:04.439Z,64.58
2023-02-09T21:47:33.946Z,64.42
2023-02-09T21:50:01.323Z,64.23
2023-02-09T21:52:29.855Z,64.08
2023-02-09T21:54:57.662Z,64.20
2023-02-09T21:57:25.984Z,64.01
2023-02-09T21:59:53.647Z,64.08
2023-02-09T22:02:21.076Z,64.28
2023-02-09T22:04:50.096Z,64.21
2023-02-09T22:07:17.318Z,64.20
2023-02-09T22:09:44.466Z,64.18
2023-02-09T22:12:11.691Z,64.76
2023-02-09T22:14:38.905Z,65.24
2023-02-09T22:17:06.098Z,64.53
2023-02-09T22:19:33.272Z,64.21
2023-02-09T22:22:01.514Z,63.83
2023-02-09T22:24:29.992Z,63.73
2023-02-09T22:26:57.755Z,64.05
2023-02-09T22:29:25.270Z,63.98
2023-02-09T22:31:52.529Z,63.98
2023-02-09T22:34:19.688Z,63.07
2023-02-09T22:36:46.892Z,63.27
2023-02-09T22:39:14.034Z,62.85
2023-02-09T22:41:44.287Z,63.09
2023-02-09T22:44:12.494Z,63.33
2023-02-09T22:46:41.399Z,63.08
2023-02-09T22:49:13.182Z,62.67
2023-02-09T22:51:40.377Z,63.84
2023-02-09T22:54:07.575Z,63.32
2023-02-09T22:56:35.167Z,62.69
2023-02-09T22:59:02.352Z,62.55
2023-02-09T23:01:30.131Z,62.82
2023-02-09T23:03:57.862Z,62.89
2023-02-09T23:06:27.300Z,62.47
2023-02-09T23:08:56.614Z,62.35
2023-02-09T23:11:23.879Z,62.14
2023-02-09T23:14:03.807Z,62.11
2023-02-09T23:16:36.064Z,62.89
2023-02-09T23:19:07.223Z,62.21
2023-02-09T23:21:36.984Z,62.50
2023-02-09T23:24:04.469Z,63.12
2023-02-09T23:26:31.795Z,62.62
2023-02-09T23:29:00.639Z,62.78
2023-02-09T23:31:28.756Z,62.93
2023-02-09T23:33:56.097Z,63.83
2023-02-09T23:36:25.455Z,64.13
2023-02-09T23:38:57.309Z,64.01
2023-02-09T23:41:25.160Z,63.54
2023-02-09T23:43:52.952Z,63.86
2023-02-09T23:46:22.355Z,64.16
2023-02-09T23:48:54.804Z,64.56
2023-02-09T23:51:26.409Z,65.67
2023-02-09T23:53:55.033Z,66.01
2023-02-09T23:56:22.417Z,66.15
2023-02-09T23:58:50.908Z,66.10
